CheckWX is a tool to help pilots better visualize weather data.  It is not intended as a substitute for an official pre-flight weather briefing.

09:19:31 UTC

KLVK METAR
Livermore Municipal Airport
Livermore, California, USA
Current

27 mins ago

KLVK 240853Z AUTO 00000KT 10SM CLR 07/04 A3038 RMK AO2 SLP285 T00670044 51002
Observed
Feb-24 @ 08:53 UTC
Visibility
10 SM
Flight Rules
VFR
Cloud Levels
  • Clear skies
Temperature
C / 45°F
Dewpoint
C / 39°F
Humidity
81%
Altimeter
30.38" Hg
Pressure
1028.82 hPa
Previous

1 hour ago

KLVK 240753Z AUTO 08003KT 10SM CLR 07/05 A3038 RMK AO2 SLP285 T00670050 401610061
Observed
Feb-24 @ 07:53 UTC
Wind
  • 080° at 3 KTS
Visibility
10 SM
Flight Rules
VFR
Cloud Levels
  • Clear skies
Temperature
C / 45°F
Dewpoint
C / 41°F
Humidity
87%
Altimeter
30.38" Hg
Pressure
1028.82 hPa
Previous

2 hours ago

KLVK 240653Z AUTO 00000KT 10SM CLR 07/05 A3038 RMK AO2 SLP287 T00720050
Observed
Feb-24 @ 06:53 UTC
Visibility
10 SM
Flight Rules
VFR
Cloud Levels
  • Clear skies
Temperature
C / 45°F
Dewpoint
C / 41°F
Humidity
87%
Altimeter
30.38" Hg
Pressure
1028.82 hPa